Time;durP1;ratioP1;P1;durP2;ratioP2;P2;SDS_P1;SDS_P2;PMS_P1;PMS_P2;Temp;Humidity;BMP_temperature;BMP_pressure;BME280_temperature;BME280_humidity;BME280_pressure;Samples;Min_cycle;Max_cycle;Signal;HPM_P1;HPM_P2
2023/01/03 00:01:31;;;;;;;1.13;1.10;;;12.90;52.40;;;;;;20895;6719;117503;-79
2023/01/03 00:04:07;;;;;;;1.00;1.00;;;12.70;52.30;;;;;;20787;6801;117045;-77
2023/01/03 00:06:42;;;;;;;1.30;1.20;;;12.50;52.80;;;;;;20666;6730;305517;-76
2023/01/03 00:09:18;;;;;;;1.33;1.10;;;12.50;52.50;;;;;;20874;6741;117940;-77
2023/01/03 00:14:49;;;;;;;1.30;1.20;;;12.60;52.40;;;;;;20633;6746;307465;-77
2023/01/03 00:17:25;;;;;;;1.33;1.23;;;13.10;51.40;;;;;;20691;6716;282881;-76
2023/01/03 00:20:01;;;;;;;1.77;1.20;;;13.10;51.30;;;;;;20654;6731;306884;-77
2023/01/03 00:22:36;;;;;;;1.10;1.10;;;13.20;50.80;;;;;;20677;6731;305718;-79
2023/01/03 00:25:15;;;;;;;1.30;1.20;;;13.30;50.60;;;;;;20681;6731;339935;-77
2023/01/03 00:27:47;;;;;;;0.90;0.90;;;13.40;50.60;;;;;;20605;6731;278456;-77
2023/01/03 00:30:24;;;;;;;1.20;1.10;;;13.40;50.20;;;;;;20734;6716;276125;-78
2023/01/03 00:33:00;;;;;;;1.30;1.02;;;13.50;50.00;;;;;;20724;6716;334407;-78
2023/01/03 00:35:35;;;;;;;0.90;0.90;;;13.50;49.90;;;;;;20735;6716;280237;-77
2023/01/03 00:38:11;;;;;;;1.10;1.00;;;13.50;49.90;;;;;;20842;6716;117469;-80
2023/01/03 00:40:46;;;;;;;0.90;0.90;;;13.20;50.40;;;;;;20942;6716;120849;-78
2023/01/03 00:43:36;;;;;;;1.10;1.10;;;12.70;51.10;;;;;;20725;6716;305464;-77
2023/01/03 00:46:07;;;;;;;1.00;1.00;;;12.70;51.10;;;;;;20931;6716;118790;-78
2023/01/03 00:48:42;;;;;;;1.00;1.00;;;12.60;51.30;;;;;;20585;6716;281435;-78
2023/01/03 00:51:21;;;;;;;1.17;1.17;;;12.60;51.60;;;;;;20943;6716;117041;-77
2023/01/03 00:53:56;;;;;;;0.87;0.87;;;12.50;51.60;;;;;;20896;6716;119039;-80
2023/01/03 00:56:32;;;;;;;1.00;1.00;;;12.20;52.00;;;;;;20948;6716;117170;-79
2023/01/03 00:59:07;;;;;;;1.20;1.20;;;12.00;52.40;;;;;;20650;6716;339122;-76
2023/01/03 01:01:46;;;;;;;1.20;1.20;;;12.10;52.60;;;;;;20658;6729;280380;-77
2023/01/03 01:04:25;;;;;;;1.30;1.30;;;12.50;52.30;;;;;;20694;6731;279255;-77
2023/01/03 01:07:00;;;;;;;1.40;1.30;;;12.70;51.30;;;;;;20669;6731;277513;-80
2023/01/03 01:09:36;;;;;;;1.33;1.23;;;12.90;50.80;;;;;;20951;6716;117487;-78
2023/01/03 01:12:11;;;;;;;1.20;1.20;;;12.70;50.90;;;;;;20724;6731;335201;-79
2023/01/03 01:14:47;;;;;;;1.50;1.40;;;12.70;51.00;;;;;;20736;6731;305921;-80
2023/01/03 01:17:23;;;;;;;1.10;1.10;;;12.80;50.60;;;;;;20686;6730;309367;-79
2023/01/03 01:19:58;;;;;;;1.20;1.20;;;13.00;50.30;;;;;;20660;6745;335033;-77
2023/01/03 01:22:34;;;;;;;1.12;1.10;;;13.10;50.30;;;;;;20679;6745;303288;-78
2023/01/03 01:25:09;;;;;;;0.97;0.97;;;13.20;49.80;;;;;;20906;6729;117033;-77
2023/01/03 01:27:45;;;;;;;1.20;1.20;;;12.80;50.10;;;;;;20814;6729;117407;-79
2023/01/03 01:30:21;;;;;;;0.83;0.83;;;12.10;51.40;;;;;;20906;6729;117098;-80
2023/01/03 01:32:57;;;;;;;1.13;1.13;;;12.10;51.40;;;;;;20682;6729;304067;-77
2023/01/03 01:35:32;;;;;;;1.10;1.10;;;12.20;51.70;;;;;;20901;6729;116935;-77
2023/01/03 01:38:08;;;;;;;1.50;1.40;;;12.10;51.70;;;;;;20563;6729;307994;-78
2023/01/03 01:40:44;;;;;;;1.37;1.27;;;12.20;51.70;;;;;;20897;6729;119079;-78
2023/01/03 01:46:21;;;;;;;1.00;1.00;;;11.80;52.00;;;;;;20626;6744;276157;-77
2023/01/03 01:48:59;;;;;;;0.80;0.80;;;12.00;51.80;;;;;;20682;6761;118685;-77
2023/01/03 01:51:35;;;;;;;0.80;0.80;;;11.90;51.80;;;;;;20936;6716;119754;-79
2023/01/03 01:54:14;;;;;;;0.80;0.80;;;11.60;52.10;;;;;;20921;6731;118048;-80
2023/01/03 01:56:46;;;;;;;1.35;1.17;;;11.40;52.50;;;;;;20725;6731;339396;-74
2023/01/03 01:59:22;;;;;;;1.00;1.00;;;11.60;53.00;;;;;;20868;6746;116943;-78
2023/01/03 02:01:57;;;;;;;0.70;0.70;;;11.60;52.50;;;;;;20872;6746;117363;-77
2023/01/03 02:04:34;;;;;;;0.90;0.90;;;11.20;53.10;;;;;;20905;6729;116920;-79
2023/01/03 02:07:09;;;;;;;1.20;1.13;;;11.20;53.10;;;;;;20836;6735;117198;-80
2023/01/03 02:09:45;;;;;;;0.90;0.90;;;11.10;53.30;;;;;;20870;6735;118021;-78
2023/01/03 02:15:59;;;;;;;1.33;1.00;;;10.90;53.90;;;;;;20841;6746;117054;-80
2023/01/03 02:18:35;;;;;;;1.20;0.90;;;10.80;53.70;;;;;;20697;6761;117419;-80
2023/01/03 02:21:24;;;;;;;0.88;0.88;;;10.80;53.90;;;;;;20717;6716;304928;-81
2023/01/03 02:24:19;;;;;;;0.93;0.77;;;11.10;53.90;;;;;;20923;6716;117876;-81
2023/01/03 02:27:34;;;;;;;0.83;0.80;;;11.20;53.40;;;;;;20923;6716;117282;-79
2023/01/03 02:30:13;;;;;;;1.00;1.00;;;11.10;53.30;;;;;;20707;6715;334322;-80
2023/01/03 02:33:05;;;;;;;0.90;0.90;;;11.40;52.60;;;;;;20935;6716;116834;-80
2023/01/03 02:35:51;;;;;;;0.90;0.90;;;11.40;52.40;;;;;;20913;6716;117211;-81
2023/01/03 02:38:46;;;;;;;1.00;1.00;;;11.20;52.70;;;;;;20804;6716;117275;-81
2023/01/03 02:41:22;;;;;;;0.90;0.90;;;11.00;53.00;;;;;;20932;6716;117125;-80
2023/01/03 02:43:57;;;;;;;1.13;1.13;;;10.80;53.30;;;;;;20912;6716;117110;-79
2023/01/03 02:46:36;;;;;;;1.00;1.00;;;10.90;53.60;;;;;;20725;6716;279883;-76
2023/01/03 02:49:12;;;;;;;1.27;1.23;;;11.00;54.40;;;;;;20699;6791;117756;-81
2023/01/03 02:51:54;;;;;;;1.00;1.00;;;11.00;53.40;;;;;;20856;6731;117443;-80
2023/01/03 02:54:29;;;;;;;1.20;1.10;;;10.90;53.60;;;;;;20682;6731;277152;-79
2023/01/03 02:57:05;;;;;;;0.88;0.88;;;11.10;53.30;;;;;;20655;6729;332081;-77
2023/01/03 02:59:44;;;;;;;1.00;1.00;;;11.50;52.50;;;;;;20826;6731;117409;-79
2023/01/03 03:02:20;;;;;;;0.87;0.87;;;11.50;52.50;;;;;;20657;6733;306953;-78
2023/01/03 03:04:55;;;;;;;0.70;0.70;;;11.60;52.20;;;;;;20940;6716;118079;-78
2023/01/03 03:07:31;;;;;;;0.90;0.90;;;11.50;52.20;;;;;;20850;6716;117278;-79
2023/01/03 03:13:12;;;;;;;0.60;0.60;;;11.40;52.40;;;;;;20925;6716;120214;-80
2023/01/03 03:15:51;;;;;;;0.70;0.70;;;11.30;52.30;;;;;;20408;6787;305748;-79
2023/01/03 03:18:40;;;;;;;0.60;0.60;;;11.40;52.00;;;;;;20809;6716;117469;-79
2023/01/03 03:24:48;;;;;;;0.60;0.60;;;11.10;52.30;;;;;;20926;6716;117250;-79
2023/01/03 03:26:50;;;;;;;1.00;1.00;;;10.70;53.30;;;;;;20875;6772;117312;-82
2023/01/03 03:29:26;;;;;;;0.47;0.47;;;10.70;53.10;;;;;;20716;6716;310166;-80
2023/01/03 03:32:03;;;;;;;5.10;4.20;;;11.00;53.40;;;;;;20695;6716;305011;-78
2023/01/03 03:34:38;;;;;;;3.10;2.13;;;11.40;52.40;;;;;;20718;6716;306857;-80
2023/01/03 03:37:15;;;;;;;0.70;0.70;;;11.70;53.00;;;;;;20872;6716;116748;-79
2023/01/03 03:46:04;;;;;;;0.70;0.70;;;11.50;51.90;;;;;;20915;6716;117442;-78
2023/01/03 03:51:52;;;;;;;0.90;0.90;;;10.90;52.70;;;;;;20900;6716;143459;-80
2023/01/03 03:54:28;;;;;;;0.60;0.60;;;10.70;53.00;;;;;;20722;6716;334208;-77
2023/01/03 03:57:17;;;;;;;0.63;0.63;;;11.00;53.10;;;;;;20907;6716;116875;-81
2023/01/03 03:59:54;;;;;;;0.80;0.80;;;11.30;52.60;;;;;;20680;6716;275146;-79
2023/01/03 04:02:29;;;;;;;1.02;0.93;;;11.30;52.60;;;;;;20722;6716;305312;-78
2023/01/03 04:05:06;;;;;;;0.63;0.63;;;11.70;52.00;;;;;;20925;6716;116890;-80
2023/01/03 04:07:41;;;;;;;0.95;0.70;;;11.60;51.70;;;;;;20621;6716;339663;-79
2023/01/03 04:10:19;;;;;;;0.80;0.80;;;11.60;51.70;;;;;;20667;6734;277099;-77
2023/01/03 04:12:52;;;;;;;1.00;0.70;;;11.90;51.30;;;;;;20708;6716;304864;-76
2023/01/03 04:15:28;;;;;;;0.70;0.70;;;12.10;50.80;;;;;;20674;6730;334677;-79
2023/01/03 04:18:04;;;;;;;1.37;1.00;;;12.20;50.40;;;;;;20766;6730;119055;-77
2023/01/03 04:23:43;;;;;;;0.93;0.93;;;11.40;51.50;;;;;;20814;6514;340153;-79
2023/01/03 04:26:09;;;;;;;1.00;0.80;;;11.50;51.60;;;;;;20658;6783;305577;-78
2023/01/03 04:28:34;;;;;;;1.30;0.97;;;11.70;51.20;;;;;;20503;6789;343748;-79
2023/01/03 04:31:00;;;;;;;1.73;0.90;;;11.90;50.90;;;;;;20697;6837;117343;-78
2023/01/03 04:33:26;;;;;;;0.70;0.70;;;11.70;50.90;;;;;;20490;6846;342200;-77
2023/01/03 04:35:52;;;;;;;0.75;0.75;;;11.40;51.30;;;;;;20665;6847;118713;-80
2023/01/03 04:38:17;;;;;;;0.80;0.80;;;11.40;51.30;;;;;;20698;6847;121273;-79
2023/01/03 04:40:43;;;;;;;0.60;0.60;;;11.10;51.70;;;;;;20395;6847;305130;-78
2023/01/03 04:45:56;;;;;;;1.00;1.00;;;11.60;51.40;;;;;;20441;6847;309025;-77
2023/01/03 04:48:21;;;;;;;0.80;0.80;;;11.70;51.50;;;;;;20475;6842;279301;-80
2023/01/03 04:50:54;;;;;;;1.00;1.00;;;11.90;51.00;;;;;;20489;6842;280274;-78
2023/01/03 04:53:20;;;;;;;0.80;0.80;;;11.90;50.70;;;;;;20494;6842;307988;-77
2023/01/03 04:55:46;;;;;;;1.00;0.90;;;11.90;50.70;;;;;;20692;6842;117821;-78
2023/01/03 04:58:11;;;;;;;0.87;0.80;;;11.70;51.00;;;;;;20682;6842;119623;-79
2023/01/03 05:00:37;;;;;;;0.93;0.90;;;11.20;51.80;;;;;;20496;6843;312461;-78
2023/01/03 05:03:03;;;;;;;0.80;0.80;;;11.50;51.80;;;;;;20501;6843;279468;-77
2023/01/03 05:05:29;;;;;;;0.97;0.90;;;11.40;51.70;;;;;;20696;6843;118691;-77
2023/01/03 05:07:54;;;;;;;1.10;1.00;;;11.30;51.70;;;;;;20487;6843;279272;-77
2023/01/03 05:10:20;;;;;;;0.80;0.80;;;11.30;51.90;;;;;;20712;6843;119597;-84
2023/01/03 05:12:58;;;;;;;0.70;0.70;;;11.20;52.00;;;;;;20697;6843;117824;-78
2023/01/03 05:15:11;;;;;;;0.70;0.70;;;10.90;52.50;;;;;;20472;6843;307384;-77
2023/01/03 05:17:37;;;;;;;0.98;0.98;;;11.00;52.60;;;;;;20494;6843;308708;-78
2023/01/03 05:25:50;;;;;;;1.00;1.00;;;11.40;52.30;;;;;;20463;6843;282996;-78
2023/01/03 05:28:19;;;;;;;1.17;1.00;;;11.60;51.70;;;;;;20498;6843;308006;-77
2023/01/03 05:30:44;;;;;;;1.20;1.13;;;11.80;51.30;;;;;;20695;6843;117226;-79
2023/01/03 05:33:10;;;;;;;1.00;1.00;;;11.60;51.50;;;;;;20712;6841;118406;-79
2023/01/03 05:35:36;;;;;;;1.23;1.17;;;11.20;52.00;;;;;;20714;6842;120994;-78
2023/01/03 05:38:02;;;;;;;1.10;1.10;;;10.70;52.90;;;;;;20694;6842;118648;-77
2023/01/03 05:40:27;;;;;;;1.00;1.00;;;10.70;52.90;;;;;;20492;6842;308531;-78
2023/01/03 05:42:53;;;;;;;1.77;1.27;;;10.80;53.10;;;;;;20499;6842;303617;-77
2023/01/03 05:45:24;;;;;;;1.67;1.40;;;11.10;53.00;;;;;;20710;6842;118204;-77
2023/01/03 05:47:44;;;;;;;1.57;1.53;;;11.00;52.90;;;;;;20451;6842;310098;-77
2023/01/03 05:50:10;;;;;;;1.93;1.70;;;11.00;52.90;;;;;;20716;6842;118824;-77
2023/01/03 05:52:37;;;;;;;1.70;1.60;;;11.00;53.10;;;;;;20506;6842;308781;-77
2023/01/03 05:55:03;;;;;;;2.30;1.83;;;11.00;53.00;;;;;;20497;6843;313659;-79
2023/01/03 05:57:28;;;;;;;2.00;1.90;;;11.30;52.90;;;;;;20502;6843;279837;-78
2023/01/03 05:59:54;;;;;;;1.77;1.67;;;11.30;52.80;;;;;;20694;6843;144722;-78
2023/01/03 06:02:20;;;;;;;1.90;1.80;;;11.20;52.70;;;;;;20466;6843;331764;-77
2023/01/03 06:04:46;;;;;;;1.90;1.70;;;11.40;52.70;;;;;;20492;6843;282248;-77
2023/01/03 06:07:12;;;;;;;2.00;1.73;;;11.40;52.70;;;;;;20491;6843;308094;-77
2023/01/03 06:09:38;;;;;;;1.83;1.73;;;11.40;52.50;;;;;;20688;6843;120674;-77
2023/01/03 06:12:04;;;;;;;1.90;1.80;;;11.40;52.50;;;;;;20484;6843;278573;-79
2023/01/03 06:14:29;;;;;;;2.08;1.90;;;11.30;52.90;;;;;;20492;6843;313402;-78
2023/01/03 06:19:40;;;;;;;3.43;2.10;;;11.60;52.10;;;;;;20683;6843;129491;-81
2023/01/03 06:22:07;;;;;;;2.50;2.30;;;10.90;52.90;;;;;;20704;6843;121326;-79
2023/01/03 06:24:32;;;;;;;4.00;3.70;;;10.80;52.80;;;;;;20479;6843;312764;-76
2023/01/03 06:26:59;;;;;;;4.97;4.57;;;10.70;53.10;;;;;;20707;6843;117497;-77
2023/01/03 06:29:24;;;;;;;5.70;5.20;;;10.70;53.10;;;;;;20497;6843;279393;-77
2023/01/03 06:31:50;;;;;;;4.50;4.10;;;11.00;53.20;;;;;;20469;6843;278989;-76
2023/01/03 06:34:16;;;;;;;2.90;2.60;;;11.00;53.20;;;;;;20503;6843;278575;-77
2023/01/03 06:36:42;;;;;;;2.27;2.17;;;11.00;52.70;;;;;;20707;6843;118140;-79
2023/01/03 06:39:08;;;;;;;2.40;2.20;;;11.00;52.70;;;;;;20708;6843;118353;-77
2023/01/03 06:41:33;;;;;;;2.60;1.80;;;10.60;53.00;;;;;;20491;6843;282754;-77
2023/01/03 06:43:59;;;;;;;2.40;2.30;;;10.70;53.40;;;;;;20479;6843;339597;-79
2023/01/03 06:54:51;;;;;;;1.80;1.70;;;10.80;52.50;;;;;;20677;6842;120000;-80
2023/01/03 06:57:17;;;;;;;2.07;1.97;;;10.30;53.10;;;;;;20707;6842;117669;-78
2023/01/03 06:59:42;;;;;;;2.40;2.30;;;10.00;53.70;;;;;;20680;6842;117772;-81
2023/01/03 07:02:08;;;;;;;3.60;3.40;;;9.80;55.80;;;;;;20484;6842;324635;-77
2023/01/03 07:04:34;;;;;;;5.20;4.85;;;9.90;55.30;;;;;;20481;6842;342093;-80
2023/01/03 07:06:59;;;;;;;4.07;3.77;;;10.20;53.90;;;;;;20457;6843;309820;-77
2023/01/03 07:09:26;;;;;;;3.95;3.67;;;10.40;53.30;;;;;;20491;6843;282664;-81
2023/01/03 07:11:50;;;;;;;4.00;3.80;;;10.60;52.70;;;;;;20473;6843;291477;-79
2023/01/03 07:14:17;;;;;;;3.60;3.33;;;10.70;52.50;;;;;;20509;6843;288755;-77
2023/01/03 07:16:41;;;;;;;4.00;3.33;;;10.80;52.30;;;;;;20596;6843;118876;-78
2023/01/03 07:19:07;;;;;;;3.10;2.90;;;10.60;52.60;;;;;;20673;6843;117244;-76
2023/01/03 07:21:33;;;;;;;2.47;2.30;;;10.20;53.30;;;;;;20694;6843;117256;-76
2023/01/03 07:24:02;;;;;;;2.70;2.60;;;9.90;54.90;;;;;;20460;6843;312126;-75
2023/01/03 07:26:29;;;;;;;2.63;2.43;;;9.90;55.00;;;;;;20494;6843;279126;-75
2023/01/03 07:28:53;;;;;;;4.07;3.77;;;10.20;53.80;;;;;;20479;6843;308958;-77
2023/01/03 07:31:19;;;;;;;4.27;4.03;;;10.50;53.50;;;;;;20484;6843;279203;-79
2023/01/03 07:33:44;;;;;;;5.60;5.30;;;10.60;52.80;;;;;;20671;6843;128082;-78
2023/01/03 07:36:11;;;;;;;8.23;7.73;;;10.40;53.30;;;;;;20495;6843;309425;-75
2023/01/03 07:38:37;;;;;;;19.83;17.92;;;10.60;53.10;;;;;;20452;6843;337403;-72
2023/01/03 07:41:02;;;;;;;12.10;10.90;;;10.50;53.00;;;;;;20662;6856;117954;-73
2023/01/03 07:43:38;;;;;;;9.30;8.45;;;10.40;53.30;;;;;;20651;6856;117540;-75
2023/01/03 07:46:09;;;;;;;5.07;4.68;;;10.00;53.80;;;;;;20476;6844;311690;-74
2023/01/03 07:48:35;;;;;;;5.07;4.70;;;10.00;54.00;;;;;;20699;6844;118500;-74
2023/01/03 07:51:01;;;;;;;4.50;4.20;;;10.00;54.00;;;;;;20766;6823;117205;-77
2023/01/03 07:53:27;;;;;;;4.18;3.97;;;9.60;55.80;;;;;;20776;6823;117269;-75
2023/01/03 07:55:53;;;;;;;3.43;3.23;;;9.60;55.80;;;;;;20745;6823;117399;-75
2023/01/03 07:58:20;;;;;;;3.10;3.00;;;9.50;56.20;;;;;;20766;6821;120405;-79
2023/01/03 08:00:45;;;;;;;3.57;3.30;;;9.30;56.40;;;;;;20761;6822;116589;-77
2023/01/03 08:03:13;;;;;;;3.97;3.67;;;9.50;57.30;;;;;;20567;6822;277927;-77
2023/01/03 08:05:37;;;;;;;3.40;3.10;;;9.50;57.20;;;;;;20773;6822;117253;-80
2023/01/03 08:08:03;;;;;;;3.13;2.93;;;9.60;56.90;;;;;;20751;6822;117073;-78
2023/01/03 08:13:18;;;;;;;2.97;2.83;;;9.90;58.00;;;;;;20566;6822;278123;-78
2023/01/03 08:15:44;;;;;;;3.15;2.95;;;9.80;57.80;;;;;;20540;6822;336826;-80
2023/01/03 08:18:10;;;;;;;3.10;2.90;;;10.80;55.30;;;;;;20554;6823;308850;-76
2023/01/03 08:20:35;;;;;;;2.90;2.70;;;10.80;55.30;;;;;;20780;6823;117413;-80
2023/01/03 08:23:01;;;;;;;3.13;2.83;;;10.80;55.00;;;;;;20570;6823;281753;-75
2023/01/03 08:25:26;;;;;;;2.67;2.53;;;10.90;54.50;;;;;;20579;6823;317448;-80
2023/01/03 08:27:52;;;;;;;3.13;2.20;;;11.20;54.00;;;;;;20760;6823;117791;-78
2023/01/03 08:30:17;;;;;;;2.70;2.60;;;11.10;54.10;;;;;;20582;6823;307306;-76
2023/01/03 08:32:44;;;;;;;2.78;2.67;;;11.50;53.90;;;;;;20567;6823;305265;-78
2023/01/03 08:35:10;;;;;;;2.60;2.50;;;11.50;53.90;;;;;;20566;6823;309030;-79
2023/01/03 08:37:35;;;;;;;2.70;2.60;;;11.80;53.20;;;;;;20557;6823;307672;-80
2023/01/03 08:40:00;;;;;;;4.93;4.72;;;12.00;52.60;;;;;;20543;6823;278079;-78
2023/01/03 08:42:26;;;;;;;2.67;2.57;;;12.20;52.30;;;;;;20553;6823;277632;-79
2023/01/03 08:44:54;;;;;;;3.77;3.57;;;12.40;52.00;;;;;;20562;6823;337623;-79
2023/01/03 08:47:20;;;;;;;4.40;4.20;;;12.50;51.70;;;;;;20775;6823;117200;-76
2023/01/03 08:49:45;;;;;;;3.70;3.53;;;12.30;52.00;;;;;;20565;6823;306823;-78
2023/01/03 08:52:11;;;;;;;2.78;2.67;;;12.20;52.10;;;;;;20784;6823;117599;-77
2023/01/03 08:54:38;;;;;;;3.15;2.50;;;12.00;52.50;;;;;;20796;6823;118256;-76
2023/01/03 08:57:02;;;;;;;4.12;3.62;;;11.70;53.00;;;;;;20792;6823;120048;-78
2023/01/03 08:59:28;;;;;;;2.93;2.83;;;11.50;53.50;;;;;;20582;6823;278229;-76
2023/01/03 09:01:53;;;;;;;2.60;2.40;;;11.60;53.50;;;;;;20551;6823;308203;-80
2023/01/03 09:04:19;;;;;;;2.30;2.20;;;11.90;53.00;;;;;;20549;6823;280490;-79
2023/01/03 09:06:45;;;;;;;2.43;2.30;;;12.20;52.40;;;;;;20781;6823;117774;-76
2023/01/03 09:09:10;;;;;;;3.00;2.80;;;12.10;52.50;;;;;;20564;6821;340278;-77
2023/01/03 09:11:36;;;;;;;1.87;1.77;;;12.20;52.50;;;;;;20766;6822;116972;-79
2023/01/03 09:14:01;;;;;;;2.40;2.30;;;12.10;52.60;;;;;;20540;6822;336495;-74
2023/01/03 09:16:28;;;;;;;2.53;2.43;;;12.00;52.60;;;;;;20776;6822;117716;-79
2023/01/03 09:18:55;;;;;;;4.00;3.80;;;12.00;53.30;;;;;;20568;6822;313628;-78
2023/01/03 09:21:20;;;;;;;3.07;2.80;;;12.10;52.80;;;;;;20550;6822;307695;-75
2023/01/03 09:23:46;;;;;;;3.00;2.80;;;12.40;52.60;;;;;;20547;6822;282576;-73
2023/01/03 09:26:11;;;;;;;2.00;1.90;;;12.50;51.90;;;;;;20726;6822;118681;-77
2023/01/03 09:28:37;;;;;;;3.15;2.95;;;12.40;52.00;;;;;;20764;6823;118279;-82
2023/01/03 09:31:03;;;;;;;2.70;2.20;;;12.10;52.50;;;;;;20769;6823;117007;-82
2023/01/03 09:33:28;;;;;;;2.10;2.00;;;11.80;52.90;;;;;;20764;6823;117855;-78
2023/01/03 09:35:54;;;;;;;4.17;3.87;;;11.60;53.30;;;;;;20754;6823;118413;-82
2023/01/03 09:38:19;;;;;;;2.10;1.90;;;11.50;53.60;;;;;;20782;6823;67633;-79
2023/01/03 09:40:46;;;;;;;2.63;2.43;;;11.60;53.80;;;;;;20544;6823;278073;-76
2023/01/03 09:43:19;;;;;;;2.53;2.33;;;11.50;53.70;;;;;;20766;6823;117873;-83
2023/01/03 09:45:45;;;;;;;2.23;2.03;;;11.60;53.50;;;;;;20550;6823;307667;-79
2023/01/03 09:48:14;;;;;;;2.43;2.00;;;11.80;53.10;;;;;;20748;6823;117402;-78
2023/01/03 09:50:39;;;;;;;3.00;2.20;;;11.80;53.00;;;;;;20758;6823;117554;-79
2023/01/03 10:04:49;;;;;;;1.40;1.30;;;11.40;54.50;;;;;;20773;6823;117092;-80
2023/01/03 10:07:34;;;;;;;1.63;1.53;;;11.40;54.60;;;;;;20564;6823;309674;-78
2023/01/03 10:10:12;;;;;;;1.40;1.30;;;11.80;54.20;;;;;;20765;6823;117833;-78
2023/01/03 10:12:45;;;;;;;2.20;1.50;;;12.00;54.00;;;;;;20567;6823;315167;-77
2023/01/03 10:15:36;;;;;;;1.43;1.37;;;12.30;53.10;;;;;;20636;6823;117507;-77
2023/01/03 10:18:19;;;;;;;1.30;1.20;;;12.50;53.00;;;;;;20733;6823;118406;-78
2023/01/03 10:20:45;;;;;;;1.50;1.40;;;12.70;52.60;;;;;;20544;6821;285026;-78
2023/01/03 10:23:12;;;;;;;1.50;1.40;;;12.60;52.50;;;;;;20557;6822;282262;-79
2023/01/03 10:25:38;;;;;;;2.40;1.70;;;13.00;51.20;;;;;;20758;6822;120467;-79
2023/01/03 10:28:13;;;;;;;1.57;1.57;;;13.10;51.30;;;;;;20506;6822;280764;-79
2023/01/03 10:30:48;;;;;;;1.90;1.80;;;13.20;51.00;;;;;;20760;6822;117106;-79
2023/01/03 10:33:37;;;;;;;2.23;2.03;;;13.20;51.10;;;;;;20557;6822;311008;-80
2023/01/03 10:36:03;;;;;;;1.98;1.83;;;13.20;50.50;;;;;;20542;6822;310511;-79
2023/01/03 10:38:28;;;;;;;1.90;1.80;;;13.50;50.10;;;;;;20767;6822;117128;-79
2023/01/03 10:40:59;;;;;;;1.67;1.57;;;13.10;50.90;;;;;;20769;6823;116999;-82
2023/01/03 10:43:38;;;;;;;1.70;1.60;;;13.10;50.90;;;;;;20773;6823;117635;-79
2023/01/03 10:46:24;;;;;;;2.30;2.20;;;12.80;51.40;;;;;;20516;6823;342931;-79
2023/01/03 10:48:53;;;;;;;2.08;1.98;;;13.00;51.50;;;;;;20553;6823;307743;-84
2023/01/03 10:51:29;;;;;;;1.93;1.83;;;13.30;51.30;;;;;;20778;6823;117825;-85
2023/01/03 10:53:54;;;;;;;3.13;2.17;;;13.40;51.40;;;;;;20733;6823;117336;-80
2023/01/03 10:56:20;;;;;;;2.30;2.10;;;13.20;51.60;;;;;;20551;6823;307692;-80
2023/01/03 10:58:45;;;;;;;2.50;2.10;;;13.30;51.40;;;;;;20763;6823;117159;-84
2023/01/03 11:01:21;;;;;;;2.20;2.00;;;13.40;51.40;;;;;;20578;6823;306406;-80
2023/01/03 11:04:14;;;;;;;1.40;1.30;;;13.50;50.60;;;;;;20750;6823;118542;-84
2023/01/03 11:06:56;;;;;;;1.37;1.33;;;13.50;50.00;;;;;;20544;6823;296710;-84
2023/01/03 11:09:22;;;;;;;1.87;1.77;;;13.80;48.80;;;;;;20317;6823;307245;-80
2023/01/03 11:11:48;;;;;;;2.20;2.03;;;13.80;48.80;;;;;;20534;6823;305889;-84
2023/01/03 11:14:24;;;;;;;1.90;1.40;;;13.90;48.70;;;;;;20556;6823;295650;-80
2023/01/03 11:17:02;;;;;;;1.50;1.20;;;14.10;48.70;;;;;;20765;6823;117594;-81
2023/01/03 11:19:32;;;;;;;1.53;1.40;;;13.70;49.40;;;;;;20768;6823;116188;-81
2023/01/03 11:22:14;;;;;;;1.00;1.00;;;13.70;49.40;;;;;;20736;6823;117513;-79
2023/01/03 11:25:04;;;;;;;1.50;1.00;;;13.60;48.60;;;;;;20551;6823;300209;-78
2023/01/03 11:27:43;;;;;;;1.00;1.00;;;13.60;48.50;;;;;;20741;6823;117585;-79
2023/01/03 11:30:15;;;;;;;1.30;1.20;;;13.60;48.80;;;;;;20569;6823;295303;-77
2023/01/03 11:32:50;;;;;;;1.23;1.13;;;13.70;48.30;;;;;;20778;6821;117463;-79
2023/01/03 11:35:18;;;;;;;1.27;1.10;;;13.70;48.80;;;;;;20760;6822;117069;-83
2023/01/03 11:38:06;;;;;;;1.17;0.90;;;13.50;49.20;;;;;;20506;6822;302805;-83
2023/01/03 11:40:32;;;;;;;1.20;1.10;;;14.00;47.80;;;;;;20543;6822;313486;-81
2023/01/03 11:43:07;;;;;;;1.10;1.00;;;14.00;47.80;;;;;;20517;6822;311738;-78
2023/01/03 11:45:39;;;;;;;1.00;0.90;;;14.20;47.10;;;;;;20541;6822;312050;-83
2023/01/03 11:48:12;;;;;;;0.90;0.90;;;14.40;46.80;;;;;;20065;6822;119389;-85
2023/01/03 11:50:52;;;;;;;1.70;0.80;;;14.10;47.40;;;;;;20151;6822;118411;-81
2023/01/03 11:53:34;;;;;;;0.93;0.73;;;14.10;47.40;;;;;;20566;6823;277929;-84
2023/01/03 11:56:20;;;;;;;0.97;0.97;;;14.20;46.70;;;;;;20753;6823;123193;-79
2023/01/03 11:59:06;;;;;;;0.70;0.70;;;14.10;46.90;;;;;;20529;6823;313804;-77
2023/01/03 12:01:31;;;;;;;0.80;0.80;;;14.20;45.40;;;;;;20542;6823;277276;-78
2023/01/03 12:04:33;;;;;;;0.63;0.63;;;14.40;45.00;;;;;;20765;6823;118038;-76
2023/01/03 12:07:08;;;;;;;2.33;0.90;;;14.40;45.60;;;;;;20780;6823;117166;-77
2023/01/03 12:09:37;;;;;;;1.10;1.10;;;14.10;46.20;;;;;;20770;6823;117647;-76
2023/01/03 12:12:20;;;;;;;0.97;0.70;;;13.90;46.70;;;;;;20731;6823;117962;-79
2023/01/03 12:14:51;;;;;;;1.08;0.70;;;13.70;47.00;;;;;;20341;6823;330023;-78
2023/01/03 12:17:37;;;;;;;1.00;0.60;;;13.80;45.00;;;;;;20767;6823;117054;-80
2023/01/03 12:20:19;;;;;;;0.90;0.70;;;13.80;44.90;;;;;;20539;6823;310941;-78
2023/01/03 12:22:45;;;;;;;0.60;0.60;;;13.90;44.00;;;;;;20555;6823;307286;-80
2023/01/03 12:25:21;;;;;;;0.50;0.50;;;14.20;43.80;;;;;;20771;6823;117050;-83
2023/01/03 12:27:46;;;;;;;0.80;0.80;;;14.20;44.60;;;;;;20531;6823;310535;-78
2023/01/03 12:30:18;;;;;;;1.20;0.80;;;14.30;44.80;;;;;;20564;6823;310537;-81
2023/01/03 12:32:43;;;;;;;0.70;0.70;;;14.50;43.70;;;;;;20776;6823;121520;-81
2023/01/03 12:35:32;;;;;;;0.82;0.70;;;14.40;44.00;;;;;;20563;6823;305840;-83
2023/01/03 12:37:58;;;;;;;1.90;0.70;;;14.40;43.10;;;;;;20438;6823;278247;-80
2023/01/03 12:40:47;;;;;;;0.90;0.67;;;14.70;42.90;;;;;;20542;6823;306999;-77
2023/01/03 12:43:19;;;;;;;1.20;0.80;;;14.80;42.30;;;;;;20532;6821;306512;-77
2023/01/03 12:45:55;;;;;;;0.90;0.85;;;15.00;43.10;;;;;;20515;6822;277801;-78
2023/01/03 12:48:44;;;;;;;1.10;1.10;;;15.10;43.10;;;;;;20771;6822;117569;-77
2023/01/03 12:51:09;;;;;;;0.90;0.73;;;14.90;43.50;;;;;;20549;6822;309424;-77
2023/01/03 12:53:42;;;;;;;0.77;0.77;;;14.90;42.60;;;;;;20742;6822;116974;-77
2023/01/03 12:56:37;;;;;;;0.90;0.90;;;14.70;43.00;;;;;;20743;6822;118359;-78
2023/01/03 12:59:14;;;;;;;0.70;0.70;;;14.40;43.80;;;;;;20771;6822;117271;-78
2023/01/03 13:01:52;;;;;;;0.63;0.63;;;14.10;44.70;;;;;;20731;6822;117232;-79
2023/01/03 13:04:14;;;;;;;0.80;0.50;;;13.90;45.00;;;;;;20765;6823;117567;-79
2023/01/03 13:06:40;;;;;;;0.85;0.80;;;13.70;45.10;;;;;;20551;6823;278016;-79
2023/01/03 13:09:22;;;;;;;0.50;0.50;;;13.90;43.70;;;;;;20750;6823;123556;-79
2023/01/03 13:11:51;;;;;;;0.80;0.80;;;13.90;44.00;;;;;;20405;6823;311729;-79
2023/01/03 13:14:16;;;;;;;0.80;0.67;;;14.00;43.40;;;;;;20765;6823;117360;-79
2023/01/03 13:16:42;;;;;;;1.33;1.00;;;14.10;43.80;;;;;;20533;6823;326145;-78
2023/01/03 13:19:21;;;;;;;1.03;0.90;;;14.10;43.30;;;;;;20522;6823;282773;-79
2023/01/03 13:21:52;;;;;;;0.90;0.90;;;14.40;42.50;;;;;;20722;6823;117238;-79
2023/01/03 13:24:38;;;;;;;1.77;0.93;;;14.20;43.00;;;;;;20571;6823;335759;-79
2023/01/03 13:27:24;;;;;;;1.40;0.93;;;14.50;42.90;;;;;;20568;6823;309564;-77
2023/01/03 13:29:50;;;;;;;1.13;1.03;;;14.50;42.90;;;;;;20508;6823;307562;-79
2023/01/03 13:32:19;;;;;;;0.90;0.90;;;14.80;42.00;;;;;;20574;6823;277813;-78
2023/01/03 13:34:44;;;;;;;1.03;0.97;;;14.80;42.00;;;;;;20529;6823;306835;-79
2023/01/03 13:37:15;;;;;;;1.00;1.00;;;14.90;41.40;;;;;;20463;6823;312291;-79
2023/01/03 13:39:51;;;;;;;1.00;1.00;;;15.00;42.00;;;;;;20556;6823;336642;-78
2023/01/03 13:42:26;;;;;;;1.17;0.90;;;14.90;41.90;;;;;;20550;6823;277552;-80
2023/01/03 13:45:18;;;;;;;1.00;0.90;;;15.00;41.60;;;;;;20702;6823;117137;-80
2023/01/03 13:47:42;;;;;;;1.30;1.08;;;14.70;42.10;;;;;;20519;6823;293636;-80
2023/01/03 13:50:18;;;;;;;0.80;0.80;;;14.60;42.10;;;;;;20771;6823;117283;-80
2023/01/03 13:53:03;;;;;;;1.73;0.90;;;14.40;42.50;;;;;;20547;6823;332719;-80
2023/01/03 13:55:39;;;;;;;1.27;0.80;;;14.40;42.00;;;;;;20781;6821;117643;-79
2023/01/03 13:58:21;;;;;;;1.27;0.98;;;14.20;42.60;;;;;;20526;6822;303621;-80
2023/01/03 14:00:47;;;;;;;0.90;0.90;;;14.20;42.40;;;;;;20620;6822;120812;-79
2023/01/03 14:03:25;;;;;;;0.90;0.90;;;14.00;43.30;;;;;;20786;6822;120075;-79
2023/01/03 14:06:04;;;;;;;1.40;0.80;;;13.70;43.20;;;;;;20544;6822;304739;-79